Airfield :
LOGIN :

Register | Disclaimer

   EN    FR    IT 

 










Legend :    VFR   Marginal VFR   IFR   Intensive IFR   Very Intensive IFR
Visi :
Ceiling :
>= 8 km
>= 3000ft
5 to 8 km
1000 to 3000 ft
1500m to 5 km
500 to 1000 ft
800 to 1500m
200 to 500 ft
< 800m
< 200 ft
Symbols :   Thunderstorms  Fog  Heavy snow  Heavy precipitations  Wind > 20 kt
SIGMETs :     Misc.  Thunderstorms  Icing  Turbulence  Mountain Waves  Volcanic Ashes






- Airport Elevation : 640 ft
- IATA code : AOC


EDAC - Altenburg-Nobitz

CURRENT METAR :
  • 150150Z AUTO 18006KT 9999 // FEW130/// SCT150/// BKN170/// 04/M00 Q1003

EXPIRED METARs :
  • 150120Z AUTO 18006KT 9999 // SCT140/// BKN170/// 04/M01 Q1003
  • 150050Z AUTO 15005KT 9999 // FEW150/// BKN180/// 04/M00 Q1002
  • 150020Z AUTO 20007KT 9999 // SCT048/// BKN190/// 04/M00 Q1003
  • 142350Z AUTO 24012KT 9999 // SCT044/// OVC210/// 04/M00 Q1003
  • 142320Z AUTO 24014KT 9999 // BKN240/// 04/M00 Q1002

Expired Forecast.



MET'MAP, your aeronautical weather chart ! - Copyright ORBIFLY December 2007 - Disclaimer

ORBIFLY MET'MAP TEAM :

Programming & Development : Alexandra Zaïnal
Concept & original design : Baudouin d'Aumeries
Assistance for programming : Marc-Olivier Méhu
Technical & hardware support : Manuel Goepfert

Contact : metmap@orbifly.com




SOURCES & CREDITS :

   NOAA